sensor_id;sensor_type;location;lat;lon;timestamp;temperature;humidity
9497;DHT22;4786;51.270;4.456;2024-01-30T00:00:12;9.30;99.90
9497;DHT22;4786;51.270;4.456;2024-01-30T00:02:38;9.20;99.90
9497;DHT22;4786;51.270;4.456;2024-01-30T00:05:03;9.20;99.90
9497;DHT22;4786;51.270;4.456;2024-01-30T00:07:29;9.10;99.90
9497;DHT22;4786;51.270;4.456;2024-01-30T00:09:55;9.10;99.90
9497;DHT22;4786;51.270;4.456;2024-01-30T00:12:21;9.10;99.90
9497;DHT22;4786;51.270;4.456;2024-01-30T00:14:47;9.00;99.90
9497;DHT22;4786;51.270;4.456;2024-01-30T00:17:14;9.00;99.90
9497;DHT22;4786;51.270;4.456;2024-01-30T00:19:40;8.90;99.90
9497;DHT22;4786;51.270;4.456;2024-01-30T00:22:06;8.90;99.90
9497;DHT22;4786;51.270;4.456;2024-01-30T00:24:33;8.90;99.90
9497;DHT22;4786;51.270;4.456;2024-01-30T00:26:59;8.80;99.90
9497;DHT22;4786;51.270;4.456;2024-01-30T00:29:24;8.80;99.90
9497;DHT22;4786;51.270;4.456;2024-01-30T00:31:55;8.80;99.90
9497;DHT22;4786;51.270;4.456;2024-01-30T00:34:20;8.80;99.90
9497;DHT22;4786;51.270;4.456;2024-01-30T00:36:46;8.80;99.90
9497;DHT22;4786;51.270;4.456;2024-01-30T00:39:12;8.80;99.90
9497;DHT22;4786;51.270;4.456;2024-01-30T00:41:38;8.80;99.90
9497;DHT22;4786;51.270;4.456;2024-01-30T00:44:04;8.80;99.90
9497;DHT22;4786;51.270;4.456;2024-01-30T00:46:30;8.80;99.90
9497;DHT22;4786;51.270;4.456;2024-01-30T00:48:57;8.80;99.90
9497;DHT22;4786;51.270;4.456;2024-01-30T00:51:23;8.80;99.90
9497;DHT22;4786;51.270;4.456;2024-01-30T00:53:49;8.80;99.90
9497;DHT22;4786;51.270;4.456;2024-01-30T00:56:15;8.80;99.90
9497;DHT22;4786;51.270;4.456;2024-01-30T00:58:43;8.80;99.90
9497;DHT22;4786;51.270;4.456;2024-01-30T01:01:09;8.80;99.90
9497;DHT22;4786;51.270;4.456;2024-01-30T01:03:36;8.80;99.90
9497;DHT22;4786;51.270;4.456;2024-01-30T01:06:02;8.80;99.90
9497;DHT22;4786;51.270;4.456;2024-01-30T01:08:28;8.70;99.90
9497;DHT22;4786;51.270;4.456;2024-01-30T01:10:54;8.80;99.90
9497;DHT22;4786;51.270;4.456;2024-01-30T01:13:20;8.80;99.90
9497;DHT22;4786;51.270;4.456;2024-01-30T01:15:46;8.80;99.90
9497;DHT22;4786;51.270;4.456;2024-01-30T01:18:12;8.80;99.90
9497;DHT22;4786;51.270;4.456;2024-01-30T01:20:38;8.80;99.90
9497;DHT22;4786;51.270;4.456;2024-01-30T01:23:04;8.80;99.90
9497;DHT22;4786;51.270;4.456;2024-01-30T01:25:30;8.70;99.90
9497;DHT22;4786;51.270;4.456;2024-01-30T01:27:55;8.70;99.90
9497;DHT22;4786;51.270;4.456;2024-01-30T01:30:21;8.70;99.90
9497;DHT22;4786;51.270;4.456;2024-01-30T01:32:49;8.70;99.90
9497;DHT22;4786;51.270;4.456;2024-01-30T01:35:22;8.70;99.90
9497;DHT22;4786;51.270;4.456;2024-01-30T01:37:52;8.60;99.90
9497;DHT22;4786;51.270;4.456;2024-01-30T01:40:25;8.60;99.90
9497;DHT22;4786;51.270;4.456;2024-01-30T01:42:52;8.60;99.90
9497;DHT22;4786;51.270;4.456;2024-01-30T01:45:19;8.60;99.90
9497;DHT22;4786;51.270;4.456;2024-01-30T01:47:48;8.60;99.90
9497;DHT22;4786;51.270;4.456;2024-01-30T01:50:16;8.50;99.90
9497;DHT22;4786;51.270;4.456;2024-01-30T01:52:47;8.50;99.90
9497;DHT22;4786;51.270;4.456;2024-01-30T01:55:14;8.50;99.90
9497;DHT22;4786;51.270;4.456;2024-01-30T01:57:41;8.40;99.90
9497;DHT22;4786;51.270;4.456;2024-01-30T02:00:09;8.30;99.90
9497;DHT22;4786;51.270;4.456;2024-01-30T02:02:36;8.30;99.90
9497;DHT22;4786;51.270;4.456;2024-01-30T02:05:02;8.30;99.90
9497;DHT22;4786;51.270;4.456;2024-01-30T02:07:28;8.30;99.90
9497;DHT22;4786;51.270;4.456;2024-01-30T02:09:55;8.20;99.90
9497;DHT22;4786;51.270;4.456;2024-01-30T02:12:20;8.20;99.90
9497;DHT22;4786;51.270;4.456;2024-01-30T02:14:47;8.00;99.90
9497;DHT22;4786;51.270;4.456;2024-01-30T02:17:13;8.00;99.90
9497;DHT22;4786;51.270;4.456;2024-01-30T02:19:39;7.90;99.90
9497;DHT22;4786;51.270;4.456;2024-01-30T02:22:06;8.00;99.90
9497;DHT22;4786;51.270;4.456;2024-01-30T02:24:33;8.00;99.90
9497;DHT22;4786;51.270;4.456;2024-01-30T02:26:59;7.90;99.90
9497;DHT22;4786;51.270;4.456;2024-01-30T02:29:24;7.90;99.90
9497;DHT22;4786;51.270;4.456;2024-01-30T02:31:50;7.90;99.90
9497;DHT22;4786;51.270;4.456;2024-01-30T02:34:16;7.80;99.90
9497;DHT22;4786;51.270;4.456;2024-01-30T02:36:45;7.80;99.90
9497;DHT22;4786;51.270;4.456;2024-01-30T02:39:11;7.80;99.90
9497;DHT22;4786;51.270;4.456;2024-01-30T02:41:37;7.90;99.90
9497;DHT22;4786;51.270;4.456;2024-01-30T02:44:03;7.90;99.90
9497;DHT22;4786;51.270;4.456;2024-01-30T02:46:29;7.90;99.90
9497;DHT22;4786;51.270;4.456;2024-01-30T02:48:55;7.90;99.90
9497;DHT22;4786;51.270;4.456;2024-01-30T02:51:21;7.90;99.90
9497;DHT22;4786;51.270;4.456;2024-01-30T02:53:47;7.90;99.90
9497;DHT22;4786;51.270;4.456;2024-01-30T02:56:13;7.90;99.90
9497;DHT22;4786;51.270;4.456;2024-01-30T02:58:39;7.90;99.90
9497;DHT22;4786;51.270;4.456;2024-01-30T03:01:06;8.00;99.90
9497;DHT22;4786;51.270;4.456;2024-01-30T03:03:32;8.00;99.90
9497;DHT22;4786;51.270;4.456;2024-01-30T03:05:59;7.90;99.90
9497;DHT22;4786;51.270;4.456;2024-01-30T03:08:25;7.90;99.90
9497;DHT22;4786;51.270;4.456;2024-01-30T03:10:51;7.90;99.90
9497;DHT22;4786;51.270;4.456;2024-01-30T03:13:17;7.90;99.90
9497;DHT22;4786;51.270;4.456;2024-01-30T03:15:42;7.90;99.90
9497;DHT22;4786;51.270;4.456;2024-01-30T03:18:08;8.00;99.90
9497;DHT22;4786;51.270;4.456;2024-01-30T03:20:34;8.00;99.90
9497;DHT22;4786;51.270;4.456;2024-01-30T03:23:00;8.10;99.90
9497;DHT22;4786;51.270;4.456;2024-01-30T03:25:26;8.10;99.90
9497;DHT22;4786;51.270;4.456;2024-01-30T03:27:51;8.20;99.90
9497;DHT22;4786;51.270;4.456;2024-01-30T03:30:17;8.20;99.90
9497;DHT22;4786;51.270;4.456;2024-01-30T03:32:43;8.40;99.90
9497;DHT22;4786;51.270;4.456;2024-01-30T03:35:09;8.40;99.90
9497;DHT22;4786;51.270;4.456;2024-01-30T03:37:35;8.50;99.90
9497;DHT22;4786;51.270;4.456;2024-01-30T03:40:02;8.50;99.90
9497;DHT22;4786;51.270;4.456;2024-01-30T03:42:28;8.70;99.90
9497;DHT22;4786;51.270;4.456;2024-01-30T03:44:54;8.80;99.90
9497;DHT22;4786;51.270;4.456;2024-01-30T03:47:21;8.90;99.90
9497;DHT22;4786;51.270;4.456;2024-01-30T03:49:47;9.00;99.90
9497;DHT22;4786;51.270;4.456;2024-01-30T03:52:13;9.10;99.90
9497;DHT22;4786;51.270;4.456;2024-01-30T03:54:39;9.20;99.90
9497;DHT22;4786;51.270;4.456;2024-01-30T03:57:05;9.40;99.90
9497;DHT22;4786;51.270;4.456;2024-01-30T03:59:31;9.40;99.90
9497;DHT22;4786;51.270;4.456;2024-01-30T04:01:57;9.50;99.90
9497;DHT22;4786;51.270;4.456;2024-01-30T04:04:23;9.70;99.90
9497;DHT22;4786;51.270;4.456;2024-01-30T04:06:49;9.70;99.90
9497;DHT22;4786;51.270;4.456;2024-01-30T04:09:15;9.80;99.90
9497;DHT22;4786;51.270;4.456;2024-01-30T04:11:41;9.80;99.90
9497;DHT22;4786;51.270;4.456;2024-01-30T04:14:08;9.90;99.90
9497;DHT22;4786;51.270;4.456;2024-01-30T04:16:34;9.90;99.90
9497;DHT22;4786;51.270;4.456;2024-01-30T04:19:00;9.90;99.90
9497;DHT22;4786;51.270;4.456;2024-01-30T04:21:27;9.90;99.90
9497;DHT22;4786;51.270;4.456;2024-01-30T04:23:53;9.90;99.90
9497;DHT22;4786;51.270;4.456;2024-01-30T04:26:19;10.00;99.90
9497;DHT22;4786;51.270;4.456;2024-01-30T04:28:45;10.00;99.90
9497;DHT22;4786;51.270;4.456;2024-01-30T04:31:12;10.00;99.90
9497;DHT22;4786;51.270;4.456;2024-01-30T04:33:38;10.00;99.90
9497;DHT22;4786;51.270;4.456;2024-01-30T04:36:04;10.10;99.90
9497;DHT22;4786;51.270;4.456;2024-01-30T04:38:31;10.10;99.90
9497;DHT22;4786;51.270;4.456;2024-01-30T04:40:57;10.10;99.90
9497;DHT22;4786;51.270;4.456;2024-01-30T04:43:23;10.20;99.90
9497;DHT22;4786;51.270;4.456;2024-01-30T04:45:49;10.20;99.90
9497;DHT22;4786;51.270;4.456;2024-01-30T04:48:16;10.20;99.90
9497;DHT22;4786;51.270;4.456;2024-01-30T04:50:42;10.30;99.90
9497;DHT22;4786;51.270;4.456;2024-01-30T04:53:08;10.30;99.90
9497;DHT22;4786;51.270;4.456;2024-01-30T04:55:35;10.30;99.90
9497;DHT22;4786;51.270;4.456;2024-01-30T04:58:01;10.30;99.90
9497;DHT22;4786;51.270;4.456;2024-01-30T05:00:28;10.30;99.90
9497;DHT22;4786;51.270;4.456;2024-01-30T05:02:55;10.30;99.90
9497;DHT22;4786;51.270;4.456;2024-01-30T05:05:21;10.40;99.90
9497;DHT22;4786;51.270;4.456;2024-01-30T05:07:47;10.40;99.90
9497;DHT22;4786;51.270;4.456;2024-01-30T05:10:13;10.50;99.90
9497;DHT22;4786;51.270;4.456;2024-01-30T05:12:39;10.50;99.90
9497;DHT22;4786;51.270;4.456;2024-01-30T05:15:06;10.60;99.90
9497;DHT22;4786;51.270;4.456;2024-01-30T05:17:32;10.60;99.90
9497;DHT22;4786;51.270;4.456;2024-01-30T05:19:58;10.50;99.90
9497;DHT22;4786;51.270;4.456;2024-01-30T05:22:24;10.50;99.90
9497;DHT22;4786;51.270;4.456;2024-01-30T05:24:50;10.50;99.90
9497;DHT22;4786;51.270;4.456;2024-01-30T05:27:16;10.50;99.90
9497;DHT22;4786;51.270;4.456;2024-01-30T05:29:42;10.50;99.90
9497;DHT22;4786;51.270;4.456;2024-01-30T05:32:08;10.50;99.90
9497;DHT22;4786;51.270;4.456;2024-01-30T05:34:35;10.60;99.90
9497;DHT22;4786;51.270;4.456;2024-01-30T05:37:01;10.50;99.90
9497;DHT22;4786;51.270;4.456;2024-01-30T05:39:27;10.60;99.90
9497;DHT22;4786;51.270;4.456;2024-01-30T05:41:53;10.60;99.90
9497;DHT22;4786;51.270;4.456;2024-01-30T05:44:20;10.50;99.90
9497;DHT22;4786;51.270;4.456;2024-01-30T05:46:45;10.50;99.90
9497;DHT22;4786;51.270;4.456;2024-01-30T05:49:12;10.50;99.90
9497;DHT22;4786;51.270;4.456;2024-01-30T05:51:37;10.60;99.90
9497;DHT22;4786;51.270;4.456;2024-01-30T05:54:03;10.60;99.90
9497;DHT22;4786;51.270;4.456;2024-01-30T05:56:29;10.60;99.90
9497;DHT22;4786;51.270;4.456;2024-01-30T05:58:56;10.50;99.90
9497;DHT22;4786;51.270;4.456;2024-01-30T06:01:21;10.60;99.90
9497;DHT22;4786;51.270;4.456;2024-01-30T06:03:47;10.60;99.90
9497;DHT22;4786;51.270;4.456;2024-01-30T06:06:13;10.60;99.90
9497;DHT22;4786;51.270;4.456;2024-01-30T06:08:40;10.60;99.90
9497;DHT22;4786;51.270;4.456;2024-01-30T06:11:05;10.70;99.90
9497;DHT22;4786;51.270;4.456;2024-01-30T06:13:31;10.70;99.90
9497;DHT22;4786;51.270;4.456;2024-01-30T06:15:58;10.60;99.90
9497;DHT22;4786;51.270;4.456;2024-01-30T06:18:24;10.60;99.90
9497;DHT22;4786;51.270;4.456;2024-01-30T06:20:51;10.60;99.90
9497;DHT22;4786;51.270;4.456;2024-01-30T06:23:17;10.60;99.90
9497;DHT22;4786;51.270;4.456;2024-01-30T06:25:43;10.70;99.90
9497;DHT22;4786;51.270;4.456;2024-01-30T06:28:09;10.70;99.90
9497;DHT22;4786;51.270;4.456;2024-01-30T06:30:35;10.70;99.90
9497;DHT22;4786;51.270;4.456;2024-01-30T06:33:02;10.70;99.90
9497;DHT22;4786;51.270;4.456;2024-01-30T06:35:28;10.80;99.90
9497;DHT22;4786;51.270;4.456;2024-01-30T06:37:54;10.90;99.90
9497;DHT22;4786;51.270;4.456;2024-01-30T06:40:20;10.90;99.90
9497;DHT22;4786;51.270;4.456;2024-01-30T06:42:45;11.00;99.90
9497;DHT22;4786;51.270;4.456;2024-01-30T06:45:11;11.00;99.90
9497;DHT22;4786;51.270;4.456;2024-01-30T06:47:37;11.00;99.90
9497;DHT22;4786;51.270;4.456;2024-01-30T06:50:03;11.00;99.90
9497;DHT22;4786;51.270;4.456;2024-01-30T06:52:30;11.00;99.90
9497;DHT22;4786;51.270;4.456;2024-01-30T06:54:56;11.10;99.90
9497;DHT22;4786;51.270;4.456;2024-01-30T06:57:22;11.00;99.90
9497;DHT22;4786;51.270;4.456;2024-01-30T06:59:48;11.00;99.90
9497;DHT22;4786;51.270;4.456;2024-01-30T07:02:14;11.10;99.90
9497;DHT22;4786;51.270;4.456;2024-01-30T07:04:39;11.10;99.90
9497;DHT22;4786;51.270;4.456;2024-01-30T07:07:06;11.10;99.90
9497;DHT22;4786;51.270;4.456;2024-01-30T07:09:37;11.10;99.90
9497;DHT22;4786;51.270;4.456;2024-01-30T07:12:03;11.00;99.90
9497;DHT22;4786;51.270;4.456;2024-01-30T07:14:30;11.00;99.90
9497;DHT22;4786;51.270;4.456;2024-01-30T07:16:55;11.00;99.90
9497;DHT22;4786;51.270;4.456;2024-01-30T07:19:21;10.90;99.90
9497;DHT22;4786;51.270;4.456;2024-01-30T07:21:48;11.00;99.90
9497;DHT22;4786;51.270;4.456;2024-01-30T07:24:14;11.00;99.90
9497;DHT22;4786;51.270;4.456;2024-01-30T07:26:40;11.00;99.90
9497;DHT22;4786;51.270;4.456;2024-01-30T07:29:06;11.00;99.90
9497;DHT22;4786;51.270;4.456;2024-01-30T07:31:32;11.10;99.90
9497;DHT22;4786;51.270;4.456;2024-01-30T07:33:57;11.10;99.90
9497;DHT22;4786;51.270;4.456;2024-01-30T07:36:23;11.10;99.90
9497;DHT22;4786;51.270;4.456;2024-01-30T07:38:49;11.10;99.90
9497;DHT22;4786;51.270;4.456;2024-01-30T07:41:15;11.20;99.90
9497;DHT22;4786;51.270;4.456;2024-01-30T07:43:40;11.20;99.90
9497;DHT22;4786;51.270;4.456;2024-01-30T07:46:07;11.20;99.90
9497;DHT22;4786;51.270;4.456;2024-01-30T07:48:33;11.20;99.90
9497;DHT22;4786;51.270;4.456;2024-01-30T07:50:59;11.10;99.90
9497;DHT22;4786;51.270;4.456;2024-01-30T07:53:26;11.10;99.90
9497;DHT22;4786;51.270;4.456;2024-01-30T07:55:52;11.20;99.90
9497;DHT22;4786;51.270;4.456;2024-01-30T07:58:18;11.20;99.90
9497;DHT22;4786;51.270;4.456;2024-01-30T08:00:44;11.20;99.90
9497;DHT22;4786;51.270;4.456;2024-01-30T08:03:11;11.20;99.90
9497;DHT22;4786;51.270;4.456;2024-01-30T08:05:38;11.20;99.90
9497;DHT22;4786;51.270;4.456;2024-01-30T08:08:04;11.20;99.90
9497;DHT22;4786;51.270;4.456;2024-01-30T08:10:31;11.20;99.90
9497;DHT22;4786;51.270;4.456;2024-01-30T08:12:57;11.20;99.90
9497;DHT22;4786;51.270;4.456;2024-01-30T08:15:23;11.20;99.90
9497;DHT22;4786;51.270;4.456;2024-01-30T08:17:49;11.20;99.90
9497;DHT22;4786;51.270;4.456;2024-01-30T08:20:15;11.20;99.90
9497;DHT22;4786;51.270;4.456;2024-01-30T08:22:42;11.20;99.90
9497;DHT22;4786;51.270;4.456;2024-01-30T08:25:08;11.20;99.90
9497;DHT22;4786;51.270;4.456;2024-01-30T08:27:35;11.20;99.90
9497;DHT22;4786;51.270;4.456;2024-01-30T08:30:05;11.20;99.90
9497;DHT22;4786;51.270;4.456;2024-01-30T08:32:31;11.30;99.90
9497;DHT22;4786;51.270;4.456;2024-01-30T08:34:58;11.30;99.90
9497;DHT22;4786;51.270;4.456;2024-01-30T08:37:24;11.30;99.90
9497;DHT22;4786;51.270;4.456;2024-01-30T08:39:50;11.40;99.90
9497;DHT22;4786;51.270;4.456;2024-01-30T08:42:15;11.40;99.90
9497;DHT22;4786;51.270;4.456;2024-01-30T08:44:44;11.40;99.90
9497;DHT22;4786;51.270;4.456;2024-01-30T08:47:09;11.40;99.90
9497;DHT22;4786;51.270;4.456;2024-01-30T08:49:35;11.40;99.90
9497;DHT22;4786;51.270;4.456;2024-01-30T08:52:01;11.40;99.90
9497;DHT22;4786;51.270;4.456;2024-01-30T08:54:27;11.40;99.90
9497;DHT22;4786;51.270;4.456;2024-01-30T08:56:53;11.50;99.90
9497;DHT22;4786;51.270;4.456;2024-01-30T08:59:20;11.40;99.90
9497;DHT22;4786;51.270;4.456;2024-01-30T09:01:46;11.40;99.90
9497;DHT22;4786;51.270;4.456;2024-01-30T09:04:13;11.40;99.90
9497;DHT22;4786;51.270;4.456;2024-01-30T09:06:38;11.50;99.90
9497;DHT22;4786;51.270;4.456;2024-01-30T09:09:04;11.50;99.90
9497;DHT22;4786;51.270;4.456;2024-01-30T09:11:31;11.50;99.90
9497;DHT22;4786;51.270;4.456;2024-01-30T09:13:57;11.50;99.90
9497;DHT22;4786;51.270;4.456;2024-01-30T09:16:23;11.50;99.90
9497;DHT22;4786;51.270;4.456;2024-01-30T09:18:49;11.50;99.90
9497;DHT22;4786;51.270;4.456;2024-01-30T09:21:15;11.50;99.90
9497;DHT22;4786;51.270;4.456;2024-01-30T09:23:41;11.50;99.90
9497;DHT22;4786;51.270;4.456;2024-01-30T09:26:08;11.50;99.90
9497;DHT22;4786;51.270;4.456;2024-01-30T09:28:38;11.50;99.90
9497;DHT22;4786;51.270;4.456;2024-01-30T09:31:09;11.50;99.90
9497;DHT22;4786;51.270;4.456;2024-01-30T09:33:35;11.60;99.90
9497;DHT22;4786;51.270;4.456;2024-01-30T09:36:01;11.60;99.90
9497;DHT22;4786;51.270;4.456;2024-01-30T09:38:27;11.60;99.90
9497;DHT22;4786;51.270;4.456;2024-01-30T09:40:54;11.60;99.90
9497;DHT22;4786;51.270;4.456;2024-01-30T09:43:23;11.50;99.90
9497;DHT22;4786;51.270;4.456;2024-01-30T09:45:50;11.50;99.90
9497;DHT22;4786;51.270;4.456;2024-01-30T09:48:16;11.60;99.90
9497;DHT22;4786;51.270;4.456;2024-01-30T09:50:42;11.60;99.90
9497;DHT22;4786;51.270;4.456;2024-01-30T09:53:08;11.50;99.90
9497;DHT22;4786;51.270;4.456;2024-01-30T09:55:36;11.50;99.90
9497;DHT22;4786;51.270;4.456;2024-01-30T09:58:02;11.50;99.90
9497;DHT22;4786;51.270;4.456;2024-01-30T10:00:29;11.50;99.90
9497;DHT22;4786;51.270;4.456;2024-01-30T10:02:54;11.60;99.90
9497;DHT22;4786;51.270;4.456;2024-01-30T10:05:27;11.60;99.90
9497;DHT22;4786;51.270;4.456;2024-01-30T10:07:54;11.70;99.90
9497;DHT22;4786;51.270;4.456;2024-01-30T10:10:23;11.70;99.90
9497;DHT22;4786;51.270;4.456;2024-01-30T10:12:49;11.70;99.90
9497;DHT22;4786;51.270;4.456;2024-01-30T10:15:15;11.70;99.90
9497;DHT22;4786;51.270;4.456;2024-01-30T10:17:42;11.70;99.90
9497;DHT22;4786;51.270;4.456;2024-01-30T10:20:08;11.70;99.90
9497;DHT22;4786;51.270;4.456;2024-01-30T10:22:34;11.60;99.90
9497;DHT22;4786;51.270;4.456;2024-01-30T10:25:00;11.60;99.90
9497;DHT22;4786;51.270;4.456;2024-01-30T10:27:27;11.60;99.90
9497;DHT22;4786;51.270;4.456;2024-01-30T10:29:53;11.70;99.90
9497;DHT22;4786;51.270;4.456;2024-01-30T10:32:20;11.70;99.90
9497;DHT22;4786;51.270;4.456;2024-01-30T10:34:46;11.70;99.90
9497;DHT22;4786;51.270;4.456;2024-01-30T10:37:12;11.70;99.90
9497;DHT22;4786;51.270;4.456;2024-01-30T10:39:41;11.70;99.90
9497;DHT22;4786;51.270;4.456;2024-01-30T10:42:15;11.80;99.90
9497;DHT22;4786;51.270;4.456;2024-01-30T10:45:12;11.70;99.90
9497;DHT22;4786;51.270;4.456;2024-01-30T10:47:40;11.70;99.90
9497;DHT22;4786;51.270;4.456;2024-01-30T10:50:10;11.80;99.90
9497;DHT22;4786;51.270;4.456;2024-01-30T10:52:37;11.80;99.90
9497;DHT22;4786;51.270;4.456;2024-01-30T10:55:04;11.90;99.90
9497;DHT22;4786;51.270;4.456;2024-01-30T10:57:37;11.90;99.90
9497;DHT22;4786;51.270;4.456;2024-01-30T11:00:15;12.00;99.90
9497;DHT22;4786;51.270;4.456;2024-01-30T11:02:46;12.00;99.90
9497;DHT22;4786;51.270;4.456;2024-01-30T11:05:13;11.90;99.90
9497;DHT22;4786;51.270;4.456;2024-01-30T11:07:41;11.90;99.90
9497;DHT22;4786;51.270;4.456;2024-01-30T11:10:07;11.90;99.90
9497;DHT22;4786;51.270;4.456;2024-01-30T11:12:39;12.00;99.90
9497;DHT22;4786;51.270;4.456;2024-01-30T11:15:18;12.00;99.90
9497;DHT22;4786;51.270;4.456;2024-01-30T11:20:27;12.10;99.90
9497;DHT22;4786;51.270;4.456;2024-01-30T11:22:54;12.00;99.90
9497;DHT22;4786;51.270;4.456;2024-01-30T11:25:21;12.00;99.90
9497;DHT22;4786;51.270;4.456;2024-01-30T11:27:50;12.10;99.90
9497;DHT22;4786;51.270;4.456;2024-01-30T11:30:23;12.10;99.90
9497;DHT22;4786;51.270;4.456;2024-01-30T11:33:06;12.10;99.90
9497;DHT22;4786;51.270;4.456;2024-01-30T11:35:34;12.00;99.90
9497;DHT22;4786;51.270;4.456;2024-01-30T11:38:00;11.90;99.90
9497;DHT22;4786;51.270;4.456;2024-01-30T11:40:28;11.90;99.90
9497;DHT22;4786;51.270;4.456;2024-01-30T11:42:55;12.00;99.90
9497;DHT22;4786;51.270;4.456;2024-01-30T11:45:22;12.00;99.90
9497;DHT22;4786;51.270;4.456;2024-01-30T11:47:47;11.90;99.90
9497;DHT22;4786;51.270;4.456;2024-01-30T11:50:13;11.90;99.90
9497;DHT22;4786;51.270;4.456;2024-01-30T11:52:40;11.90;99.90
9497;DHT22;4786;51.270;4.456;2024-01-30T11:55:07;11.90;99.90
9497;DHT22;4786;51.270;4.456;2024-01-30T11:57:33;11.90;99.90
9497;DHT22;4786;51.270;4.456;2024-01-30T12:00:01;11.90;99.90
9497;DHT22;4786;51.270;4.456;2024-01-30T12:02:29;11.90;99.90
9497;DHT22;4786;51.270;4.456;2024-01-30T12:04:55;11.70;99.90
9497;DHT22;4786;51.270;4.456;2024-01-30T12:07:21;11.70;99.90
9497;DHT22;4786;51.270;4.456;2024-01-30T12:09:53;11.80;99.90
9497;DHT22;4786;51.270;4.456;2024-01-30T12:12:22;11.80;99.90
9497;DHT22;4786;51.270;4.456;2024-01-30T12:14:48;11.80;99.90
9497;DHT22;4786;51.270;4.456;2024-01-30T12:17:28;11.90;99.90
9497;DHT22;4786;51.270;4.456;2024-01-30T12:20:07;11.90;99.90
9497;DHT22;4786;51.270;4.456;2024-01-30T12:22:37;11.80;99.90
9497;DHT22;4786;51.270;4.456;2024-01-30T12:25:07;11.70;99.90
9497;DHT22;4786;51.270;4.456;2024-01-30T12:27:34;11.70;99.90
9497;DHT22;4786;51.270;4.456;2024-01-30T12:30:00;11.70;99.90
9497;DHT22;4786;51.270;4.456;2024-01-30T12:32:28;11.60;99.90
9497;DHT22;4786;51.270;4.456;2024-01-30T12:34:57;11.70;99.90
9497;DHT22;4786;51.270;4.456;2024-01-30T12:37:23;11.70;99.90
9497;DHT22;4786;51.270;4.456;2024-01-30T12:39:51;11.60;99.90
9497;DHT22;4786;51.270;4.456;2024-01-30T12:42:19;11.60;99.90
9497;DHT22;4786;51.270;4.456;2024-01-30T12:44:45;11.70;99.90
9497;DHT22;4786;51.270;4.456;2024-01-30T12:47:11;11.60;99.90
9497;DHT22;4786;51.270;4.456;2024-01-30T12:49:37;11.70;99.90
9497;DHT22;4786;51.270;4.456;2024-01-30T12:52:04;11.60;99.90
9497;DHT22;4786;51.270;4.456;2024-01-30T12:54:30;11.40;99.90
9497;DHT22;4786;51.270;4.456;2024-01-30T12:56:56;11.40;99.90
9497;DHT22;4786;51.270;4.456;2024-01-30T12:59:22;11.40;99.90
9497;DHT22;4786;51.270;4.456;2024-01-30T13:01:48;11.40;99.90
9497;DHT22;4786;51.270;4.456;2024-01-30T13:04:14;11.40;99.90
9497;DHT22;4786;51.270;4.456;2024-01-30T13:06:41;11.40;99.90
9497;DHT22;4786;51.270;4.456;2024-01-30T13:09:07;11.30;99.90
9497;DHT22;4786;51.270;4.456;2024-01-30T13:11:33;11.40;99.90
9497;DHT22;4786;51.270;4.456;2024-01-30T13:14:00;11.20;99.90
9497;DHT22;4786;51.270;4.456;2024-01-30T13:16:26;11.30;99.90
9497;DHT22;4786;51.270;4.456;2024-01-30T13:18:52;11.20;99.90
9497;DHT22;4786;51.270;4.456;2024-01-30T13:21:18;11.20;99.90
9497;DHT22;4786;51.270;4.456;2024-01-30T13:23:45;11.10;99.90
9497;DHT22;4786;51.270;4.456;2024-01-30T13:26:11;11.10;99.90
9497;DHT22;4786;51.270;4.456;2024-01-30T13:28:37;11.10;99.90
9497;DHT22;4786;51.270;4.456;2024-01-30T13:31:03;11.10;99.90
9497;DHT22;4786;51.270;4.456;2024-01-30T13:33:31;11.00;99.90
9497;DHT22;4786;51.270;4.456;2024-01-30T13:35:57;10.90;99.90
9497;DHT22;4786;51.270;4.456;2024-01-30T13:38:24;10.90;99.90
9497;DHT22;4786;51.270;4.456;2024-01-30T13:40:50;10.80;99.90
9497;DHT22;4786;51.270;4.456;2024-01-30T13:43:16;10.70;99.90
9497;DHT22;4786;51.270;4.456;2024-01-30T13:45:43;10.70;99.90
9497;DHT22;4786;51.270;4.456;2024-01-30T13:48:09;10.70;99.90
9497;DHT22;4786;51.270;4.456;2024-01-30T13:50:35;10.60;99.90
9497;DHT22;4786;51.270;4.456;2024-01-30T13:53:02;10.60;99.90
9497;DHT22;4786;51.270;4.456;2024-01-30T13:55:28;10.60;99.90
9497;DHT22;4786;51.270;4.456;2024-01-30T13:57:53;10.60;99.90
9497;DHT22;4786;51.270;4.456;2024-01-30T14:00:21;10.50;99.90
9497;DHT22;4786;51.270;4.456;2024-01-30T14:02:48;10.70;99.90
9497;DHT22;4786;51.270;4.456;2024-01-30T14:05:14;10.30;99.90
9497;DHT22;4786;51.270;4.456;2024-01-30T14:07:40;10.20;99.90
9497;DHT22;4786;51.270;4.456;2024-01-30T14:10:09;10.30;99.90
9497;DHT22;4786;51.270;4.456;2024-01-30T14:12:36;10.20;99.90
9497;DHT22;4786;51.270;4.456;2024-01-30T14:15:02;10.20;99.90
9497;DHT22;4786;51.270;4.456;2024-01-30T14:17:28;10.20;99.90
9497;DHT22;4786;51.270;4.456;2024-01-30T14:19:54;10.10;99.90
9497;DHT22;4786;51.270;4.456;2024-01-30T14:22:20;10.10;99.90
9497;DHT22;4786;51.270;4.456;2024-01-30T14:24:46;10.10;99.90
9497;DHT22;4786;51.270;4.456;2024-01-30T14:27:12;10.10;99.90
9497;DHT22;4786;51.270;4.456;2024-01-30T14:29:38;10.10;99.90
9497;DHT22;4786;51.270;4.456;2024-01-30T14:32:05;10.10;99.90
9497;DHT22;4786;51.270;4.456;2024-01-30T14:34:31;10.20;99.90
9497;DHT22;4786;51.270;4.456;2024-01-30T14:36:57;10.10;99.90
9497;DHT22;4786;51.270;4.456;2024-01-30T14:39:23;10.10;99.90
9497;DHT22;4786;51.270;4.456;2024-01-30T14:41:49;10.10;99.90
9497;DHT22;4786;51.270;4.456;2024-01-30T14:44:15;10.10;99.90
9497;DHT22;4786;51.270;4.456;2024-01-30T14:46:41;10.10;99.90
9497;DHT22;4786;51.270;4.456;2024-01-30T14:49:08;10.10;99.90
9497;DHT22;4786;51.270;4.456;2024-01-30T14:51:35;10.10;99.90
9497;DHT22;4786;51.270;4.456;2024-01-30T14:54:01;10.10;99.90
9497;DHT22;4786;51.270;4.456;2024-01-30T14:56:27;10.10;99.90
9497;DHT22;4786;51.270;4.456;2024-01-30T14:58:54;10.20;99.90
9497;DHT22;4786;51.270;4.456;2024-01-30T15:01:20;10.10;99.90
9497;DHT22;4786;51.270;4.456;2024-01-30T15:03:45;10.00;99.90
9497;DHT22;4786;51.270;4.456;2024-01-30T15:06:12;10.10;99.90
9497;DHT22;4786;51.270;4.456;2024-01-30T15:08:38;10.10;99.90
9497;DHT22;4786;51.270;4.456;2024-01-30T15:11:04;10.10;99.90
9497;DHT22;4786;51.270;4.456;2024-01-30T15:13:31;10.00;99.90
9497;DHT22;4786;51.270;4.456;2024-01-30T15:15:58;10.10;99.90
9497;DHT22;4786;51.270;4.456;2024-01-30T15:18:23;10.10;99.90
9497;DHT22;4786;51.270;4.456;2024-01-30T15:20:49;10.10;99.90
9497;DHT22;4786;51.270;4.456;2024-01-30T15:23:15;10.20;99.90
9497;DHT22;4786;51.270;4.456;2024-01-30T15:25:41;10.20;99.90
9497;DHT22;4786;51.270;4.456;2024-01-30T15:28:08;10.20;99.90
9497;DHT22;4786;51.270;4.456;2024-01-30T15:30:35;10.30;99.90
9497;DHT22;4786;51.270;4.456;2024-01-30T15:33:00;10.30;99.90
9497;DHT22;4786;51.270;4.456;2024-01-30T15:35:27;10.30;99.90
9497;DHT22;4786;51.270;4.456;2024-01-30T15:37:52;10.30;99.90
9497;DHT22;4786;51.270;4.456;2024-01-30T15:40:18;10.20;99.90
9497;DHT22;4786;51.270;4.456;2024-01-30T15:42:44;10.20;99.90
9497;DHT22;4786;51.270;4.456;2024-01-30T15:45:11;10.10;99.90
9497;DHT22;4786;51.270;4.456;2024-01-30T15:47:37;10.20;99.90
9497;DHT22;4786;51.270;4.456;2024-01-30T15:50:04;10.20;99.90
9497;DHT22;4786;51.270;4.456;2024-01-30T15:52:30;10.20;99.90
9497;DHT22;4786;51.270;4.456;2024-01-30T15:54:56;10.30;99.90
9497;DHT22;4786;51.270;4.456;2024-01-30T15:57:22;10.40;99.90
9497;DHT22;4786;51.270;4.456;2024-01-30T15:59:48;10.30;99.90
9497;DHT22;4786;51.270;4.456;2024-01-30T16:02:14;10.20;99.90
9497;DHT22;4786;51.270;4.456;2024-01-30T16:04:41;10.20;99.90